Palomar Park, California
Current Conditions -  °F | °C
As of 12:50 PM on Thursday 23 Oct 2014 (Local Time) from KSQL Reporting Station
Broken Clouds Broken Clouds  
Wind Chill: 66°   Ceiling: 18000
Heat Index: 66°   Visibility: 10mi
Dew Point: 59°   Wind: 9mph
Humidity: 78%   Direction: 30°NNE
Pressure: 30.07"   Gusts: NA
Location:  37.4497°N, 122.329°W
Report Text: KSQL 231950Z 03008KT 10SM FEW025 BKN180 19/15 A3007
Loading
Personal Weather Stations






























Interactive Weather Map
Tropical Storm Tracking
New forecast layout! Learn more

10-Day Weather Forecast

Advertisements
Track Severe Weather on mobile